Tiempo atmosférico en la estación meteorológica de Antigua, Las Palmas (252 m.)



Fecha
DESCASC
Temp. máxima en grados centígrados (hora)
DESCASC
Temp. mínima en grados centígrados (hora)
DESCASC
Temp. media en grados centígrados
DESCASC
Racha de viento máxima en m/sg (hora)
DESCASC
Velocidad máxima media en intervalos de 10 minutos(hora)
DESCASC
Precipitaciones diarias en mm
DESCASC
Precipitaciones de 00:00 a 06:00 en mm
DESCASC
Precipitaciones de 06:00 a 12:00 en mm
DESCASC
Precipitaciones de 12:00 a 18:00 en mm
DESCASC
Precipitaciones de 18:00 a 24:00 en mm
DESCASC
13-10-2019 24.7 (14:20) 14.6 (07:10) 19.7 8.61 (18:30) 6.11 (17:20) 0 0 0 0 0
12-10-2019 26.1 (14:10) 15 (07:50) 20.6 10 (17:40) 7.22 (19:50) 0 0 0 0 0
11-10-2019 26 (14:40) 17.6 (07:20) 21.8 8.89 (15:00) 6.39 (18:00) 0 0 0 0 0
10-10-2019 25.9 (14:30) 16.6 (00:00) 21.3 7.5 (13:10) 4.44 (14:30) 0 0 0 0 0
09-10-2019 26.3 (14:20) 17.5 (00:00) 21.9 10 (10:10) 6.94 (10:20) 0 0 0 0 0
08-10-2019 26.7 (13:40) 16.9 (00:00) 21.8 10 (21:00) 7.5 (21:20) 0 0 0 0 0
07-10-2019 27.9 (14:50) 16.4 (00:00) 22.1 10 (16:50) 7.78 (16:40) 0 0 0 0 0
06-10-2019 25.8 (15:10) 17.8 (00:00) 21.8 10.28 (13:50) 6.67 (18:10) 0 0 0 0 0
05-10-2019 26.8 (14:50) 17.9 (00:00) 22.3 11.11 (13:10) 7.78 (16:50) 0 0 0 0 0
04-10-2019 28.5 (14:40) 18.9 (00:00) 23.7 16.11 (02:30) 11.67 (02:40) 0 0 0 0 0
03-10-2019 27.6 (13:40) 19.6 (00:00) 23.6 15.83 (20:00) 12.22 (19:30) 0 0 0 0 0
02-10-2019 30.5 (13:30) 20.5 (00:00) 25.5 8.89 (05:30) 6.94 (05:30) 0 0 0 0 0
01-10-2019 30.8 (15:00) 19.5 (00:00) 25.1 10.56 (13:10) 7.5 (13:40) 0 0 0 0 0
30-09-2019 32.8 (14:20) 19.8 (00:00) 26.3 13.61 (18:50) 10.28 (18:50) 0 0 0 0 0
29-09-2019 30.5 (16:30) 18.7 (00:00) 24.6 10.83 (19:00) 8.33 (18:40) 0 0 0 0 0
28-09-2019 27.5 (16:30) 17.5 (00:00) 22.5 10.83 (21:30) 7.78 (18:40) 0 0 0 0 0
27-09-2019 26.4 (16:50) 19.6 (00:00) 23 10.56 (17:50) 7.22 (18:50) 0 0 0 0 0
26-09-2019 27.3 (14:20) 20.2 (00:00) 23.8 10.28 (14:40) 6.39 (15:00) 0 0 0 0 0
25-09-2019 27.8 (13:30) 18.5 (00:00) 23.1 12.78 (17:00) 9.17 (16:50) 0 0 0 0 0
24-09-2019 26.8 (15:00) 17.4 (00:00) 22.1 13.06 (16:20) 9.17 (16:00) 0 0 0 0 0
23-09-2019 26.4 (15:00) 19.1 (00:00) 22.8 11.39 (18:00) 8.33 (17:30) 0 0 0 0 0
22-09-2019 27.3 (14:30) 19.3 (00:00) 23.3 10 (15:20) 7.22 (12:40) 0 0 0 0 0
21-09-2019 26.7 (15:20) 16.7 (00:00) 21.7 9.72 (14:10) 6.94 (16:00) 0 0 0 0 0
20-09-2019 26.5 (15:00) 16.9 (00:00) 21.7 11.67 (17:50) 8.61 (17:50) 0 0 0 0 0
19-09-2019 27.3 (13:50) 16.5 (00:00) 21.9 12.22 (14:50) 7.78 (22:50) 0 0 0 0 0
18-09-2019 25.9 (13:20) 18 (00:00) 21.9 9.44 (13:50) 6.11 (13:10) 0 0 0 0 0
17-09-2019 -- (--) -- (--) -- -- (--) -- (--) -- 0 0 0 --
16-09-2019 32.2 (13:50) 20.3 (00:00) 26.3 17.78 (18:00) 8.89 (13:20) 0.6 0 0 0.6 0

Gráficas

Temp. máximas Temp. mínimas Temp. medias Precipitaciones Rachas de viento máximas Velocidades máximas media en intervalos de 10 minutos

Datos horarios

Fecha y hora oficial Temperatura (ºC) Velocidad del viento (km/h) Dirección del viento Racha (km/h) Dirección de racha Precipitación (mm) Presión (hPa) Tendencia (hPa) Humedad (%)
2019-10-15 23:00:00 19.3 6 Nordeste 19 Este 0 -- -- 78
2019-10-15 22:00:00 19.3 8 Nordeste 23 Nordeste 0 -- -- 76
2019-10-15 21:00:00 19.3 12 Nordeste 20 Nordeste 0 -- -- 74
2019-10-15 20:00:00 19.6 11 Nordeste 24 Nordeste 0 -- -- 71
2019-10-15 19:00:00 20.5 15 Nordeste 31 Nordeste 0 -- -- 66
2019-10-15 18:00:00 21.6 22 Nordeste 35 Nordeste 0 -- -- 59
2019-10-15 17:00:00 22.7 22 Nordeste 39 Nordeste 0 -- -- 54
2019-10-15 16:00:00 23.2 23 Nordeste 33 Nordeste 0 -- -- 54
2019-10-15 15:00:00 23.7 10 Nordeste 27 Nordeste 0 -- -- 54
2019-10-15 14:00:00 23.2 12 Nordeste 26 Nordeste 0 -- -- 57
2019-10-15 13:00:00 22.4 11 Nordeste 28 Nordeste 0 -- -- 60
2019-10-15 12:00:00 22.4 17 Nordeste 26 Nordeste 0 -- -- 61
2019-10-15 11:00:00 21 18 Nordeste 26 Nordeste 0 -- -- 65
2019-10-15 10:00:00 20 19 Nordeste 27 Nordeste 0 -- -- 73
2019-10-15 09:00:00 18 3 Norte 13 Noroeste 0 -- -- 88
2019-10-15 08:00:00 16.6 9 Norte 14 Norte 0 -- -- 90
2019-10-15 07:00:00 16.5 6 Norte 11 Norte 0 -- -- 88
2019-10-15 06:00:00 16.8 6 Norte 13 Norte 0 -- -- 87
2019-10-15 05:00:00 17 8 Norte 21 Nordeste 0 -- -- 84
2019-10-15 04:00:00 18 11 Norte 27 Nordeste 0 -- -- 84
2019-10-15 03:00:00 18.3 11 Nordeste 22 Norte 0 -- -- 84
2019-10-15 02:00:00 18.4 14 Nordeste 23 Norte 0 -- -- 84
2019-10-15 01:00:00 18.5 12 Nordeste 22 Nordeste 0 -- -- 84
2019-10-15 00:00:00 18.6 14 Nordeste 22 Nordeste 0 -- -- 85
2019-10-14 23:00:00 18.8 13 Nordeste 25 Nordeste 0 -- -- 84
2019-10-14 22:00:00 19.2 19 Nordeste 30 Nordeste 0 -- -- 84
2019-10-14 21:00:00 19.7 18 Nordeste 31 Nordeste 0 -- -- 83
2019-10-14 20:00:00 20.2 19 Nordeste 33 Nordeste 0 -- -- 81
2019-10-14 19:00:00 20.9 21 Nordeste 33 Nordeste 0 -- -- 79
2019-10-14 18:00:00 21.6 21 Nordeste 33 Nordeste 0 -- -- 75
2019-10-14 17:00:00 22.4 20 Nordeste 30 Este 0 -- -- 73
2019-10-14 16:00:00 23 21 Nordeste 29 Nordeste 0 -- -- 71
2019-10-14 15:00:00 23.7 17 Norte 38 Noroeste 0 -- -- 67
2019-10-14 14:00:00 23.4 11 Nordeste 21 Nordeste 0 -- -- 66
2019-10-14 13:00:00 22.6 13 Este 23 Norte 0 -- -- 73
2019-10-14 12:00:00 22.2 17 Norte 27 Norte 0 -- -- 75
2019-10-14 11:00:00 22.1 12 Norte 19 Norte 0 -- -- 74
2019-10-14 10:00:00 20.9 10 Norte 14 Norte 0 -- -- 82
2019-10-14 09:00:00 17.9 6 Norte 12 Noroeste 0 -- -- 94
2019-10-14 08:00:00 16.9 6 Norte 12 Norte 0 -- -- 94
2019-10-14 07:00:00 16 3 Norte 6 Norte 0 -- -- 92
2019-10-14 06:00:00 16.4 5 Norte 10 Este 0 -- -- 90
2019-10-14 05:00:00 18.2 11 Noroeste 18 Noroeste 0 -- -- 89
2019-10-14 04:00:00 17.5 8 Noroeste 18 Noroeste 0 -- -- 88
2019-10-14 03:00:00 17.8 14 Noroeste 19 Noroeste 0 -- -- 86
2019-10-14 02:00:00 15.8 7 Noroeste 10 Noroeste 0 -- -- 83
2019-10-14 01:00:00 16.7 6 Norte 13 Noroeste 0 -- -- 81
2019-10-14 00:00:00 17.5 13 Noroeste 14 Noroeste 0 -- -- 81
2019-10-13 23:00:00 17.5 9 Noroeste 12 Norte 0 -- -- 75
2019-10-13 22:00:00 19.2 11 Norte 17 Noroeste 0 -- -- 71
2019-10-13 21:00:00 19.3 12 Noroeste 16 Noroeste 0 -- -- 69
2019-10-13 20:00:00 20.3 14 Noroeste 26 Noroeste 0 -- -- 65
2019-10-13 19:00:00 21.4 20 Noroeste 31 Noroeste 0 -- -- 60
2019-10-13 18:00:00 23 21 Noroeste 30 Noroeste 0 -- -- 57
2019-10-13 17:00:00 23.8 21 Noroeste 27 Noroeste 0 -- -- 57
2019-10-13 16:00:00 24.4 13 Norte 25 Este 0 -- -- 53
2019-10-13 15:00:00 24.7 7 Norte 24 Noroeste 0 -- -- 50
2019-10-13 14:00:00 24.6 17 Noroeste 28 Noroeste 0 -- -- 51
2019-10-13 13:00:00 23.6 14 Norte 30 Noroeste 0 -- -- 54
2019-10-13 12:00:00 23.1 18 Noroeste 26 Norte 0 -- -- 57
2019-10-13 11:00:00 22.4 14 Noroeste 23 Noroeste 0 -- -- 60
2019-10-13 10:00:00 20.7 9 Norte 13 Norte 0 -- -- 68
2019-10-13 09:00:00 17.1 3 Noroeste 10 Noroeste 0 -- -- 90
2019-10-13 08:00:00 14.6 4 Noroeste 9 Oeste 0 -- -- 91
2019-10-13 07:00:00 14.9 4 Oeste 8 Oeste 0 -- -- 92
2019-10-13 06:00:00 15.8 6 Oeste 8 Oeste 0 -- -- 92
2019-10-13 05:00:00 16.1 3 Oeste 6 Oeste 0 -- -- 90
2019-10-13 04:00:00 16.7 3 Noroeste 9 Noroeste 0 -- -- 90
2019-10-13 03:00:00 16.9 5 Noroeste 9 Noroeste 0 -- -- 89
2019-10-13 02:00:00 16.6 4 Noroeste 12 Noroeste 0 -- -- 87
2019-10-13 01:00:00 17.5 10 Noroeste 12 Noroeste 0 -- -- 87
2019-10-13 00:00:00 18.4 8 Noroeste 18 Noroeste 0 -- -- 85
2019-10-12 23:00:00 19.3 14 Noroeste 18 Noroeste 0 -- -- 84
2019-10-12 22:00:00 19.3 12 Norte 24 Noroeste 0 -- -- 84
2019-10-12 21:00:00 19.8 20 Noroeste 29 Noroeste 0 -- -- 82
2019-10-12 20:00:00 20.3 23 Noroeste 33 Noroeste 0 -- -- 76
2019-10-12 19:00:00 21.2 24 Norte 33 Noroeste 0 -- -- 67
2019-10-12 18:00:00 22.5 23 Norte 36 Noroeste 0 -- -- 69
2019-10-12 17:00:00 24.2 21 Noroeste 31 Norte 0 -- -- 62
2019-10-12 16:00:00 25.1 21 Norte 32 Noroeste 0 -- -- 61
2019-10-12 15:00:00 25.9 19 Noroeste 29 Noroeste 0 -- -- 56
2019-10-12 14:00:00 25.9 9 Norte 18 Norte 0 -- -- 55
2019-10-12 13:00:00 24.5 8 Norte 19 Este 0 -- -- 55
2019-10-12 12:00:00 23 7 Nordeste 19 Este 0 -- -- 60
2019-10-12 11:00:00 22 10 Nordeste 18 Nordeste 0 -- -- 64
2019-10-12 10:00:00 20.7 5 Norte 10 Norte 0 -- -- 75
2019-10-12 09:00:00 17.3 5 Norte 9 Noroeste 0 -- -- 94
2019-10-12 08:00:00 15.1 6 Noroeste 8 Noroeste 0 -- -- 94
2019-10-12 07:00:00 16.1 3 Noroeste 10 Noroeste 0 -- -- 93
2019-10-12 06:00:00 17.1 9 Noroeste 14 Noroeste 0 -- -- 92
2019-10-12 05:00:00 17.7 9 Norte 21 Norte 0 -- -- 92
2019-10-12 04:00:00 18.2 15 Noroeste 22 Norte 0 -- -- 92
2019-10-12 03:00:00 18.4 14 Noroeste 22 Norte 0 -- -- 91
2019-10-12 02:00:00 18.6 15 Noroeste 21 Noroeste 0 -- -- 89
2019-10-12 01:00:00 18.7 12 Noroeste 21 Noroeste 0 -- -- 88
2019-10-12 00:00:00 18.8 13 Noroeste 18 Noroeste 0 -- -- 87
2019-10-11 23:00:00 18.9 9 Noroeste 14 Noroeste 0 -- -- 86
2019-10-11 22:00:00 19.3 11 Noroeste 21 Noroeste 0 -- -- 84
2019-10-11 21:00:00 19.8 17 Noroeste 25 Noroeste 0 -- -- 81
2019-10-11 20:00:00 20.4 18 Noroeste 26 Noroeste 0 -- -- 77
2019-10-11 19:00:00 21.6 19 Noroeste 29 Noroeste 0 -- -- 69
2019-10-11 18:00:00 23.2 23 Noroeste 32 Noroeste 0 -- -- 63
2019-10-11 17:00:00 24.8 16 Noroeste 27 Noroeste 0 -- -- 54
2019-10-11 16:00:00 25.4 16 Norte 26 Norte 0 -- -- 53
2019-10-11 15:00:00 25.8 17 Norte 32 Noroeste 0 -- -- 52
2019-10-11 14:00:00 25.6 13 Norte 24 Norte 0 -- -- 52
2019-10-11 13:00:00 24.9 15 Norte 27 Norte 0 -- -- 56
2019-10-11 12:00:00 23.7 14 Norte 22 Norte 0 -- -- 59
2019-10-11 11:00:00 22.4 16 Norte 24 Norte 0 -- -- 66
2019-10-11 10:00:00 20.9 15 Norte 22 Norte 0 -- -- 77
2019-10-11 09:00:00 19.1 9 Noroeste 17 Noroeste 0 -- -- 92
2019-10-11 08:00:00 17.7 14 Noroeste 20 Noroeste 0 -- -- 93
2019-10-11 07:00:00 17.8 11 Noroeste 17 Noroeste 0 -- -- 92
2019-10-11 06:00:00 17.9 13 Noroeste 19 Noroeste 0 -- -- 91
2019-10-11 05:00:00 18.3 15 Noroeste 23 Noroeste 0 -- -- 92
2019-10-11 04:00:00 18.7 16 Noroeste 23 Noroeste 0 -- -- 92
2019-10-11 03:00:00 18.8 17 Noroeste 23 Noroeste 0 -- -- 91
2019-10-11 02:00:00 18.8 13 Noroeste 17 Noroeste 0 -- -- 88
2019-10-11 01:00:00 18.7 7 Noroeste 10 Noroeste 0 -- -- 86
2019-10-11 00:00:00 19.9 2 Sudeste 8 Sudeste 0 -- -- 87
2019-10-10 23:00:00 20.2 5 Este 9 Sudeste 0 -- -- 85
2019-10-10 22:00:00 20.7 6 Este 12 Este 0 -- -- 85
2019-10-10 21:00:00 20.9 3 Nordeste 11 Este 0 -- -- 82
2019-10-10 20:00:00 21.3 6 Sudeste 15 Este 0 -- -- 78
2019-10-10 19:00:00 22 10 Este 19 Este 0 -- -- 74
2019-10-10 18:00:00 22.6 12 Este 20 Este 0 -- -- 71
2019-10-10 17:00:00 24.2 13 Norte 25 Norte 0 -- -- 64
2019-10-10 16:00:00 24.3 14 Norte 24 Nordeste 0 -- -- 60
2019-10-10 15:00:00 25.2 13 Norte 24 Noroeste 0 -- -- 56
2019-10-10 14:00:00 24.9 6 Nordeste 27 Este 0 -- -- 61
2019-10-10 13:00:00 25 8 Este 21 Nordeste 0 -- -- 60
2019-10-10 12:00:00 24.3 9 Norte 19 Norte 0 -- -- 59
2019-10-10 11:00:00 23.2 14 Norte 21 Norte 0 -- -- 62
2019-10-10 10:00:00 21.5 12 Norte 19 Nordeste 0 -- -- 72
2019-10-10 09:00:00 18.1 5 Noroeste 10 Norte 0 -- -- 87
2019-10-10 08:00:00 16.8 4 Norte 16 Noroeste 0 -- -- 85
2019-10-10 07:00:00 16.6 10 Norte 14 Noroeste 0 -- -- 86
2019-10-10 06:00:00 17.7 10 Noroeste 15 Noroeste 0 -- -- 86
2019-10-10 05:00:00 17.3 7 Norte 16 Noroeste 0 -- -- 88
2019-10-10 04:00:00 18.2 13 Noroeste 17 Noroeste 0 -- -- 88
2019-10-10 03:00:00 17.8 6 Norte 12 Noroeste 0 -- -- 82
2019-10-10 02:00:00 18.2 5 Noroeste 11 Norte 0 -- -- 82
2019-10-10 01:00:00 18.1 6 Noroeste 9 Noroeste 0 -- -- 85
2019-10-10 00:00:00 18.6 6 Noroeste 10 Norte 0 -- -- 87
2019-10-09 23:00:00 19.3 10 Norte 21 Noroeste 0 -- -- 86
2019-10-09 22:00:00 19.6 9 Noroeste 19 Norte 0 -- -- 81
2019-10-09 21:00:00 20.4 12 Norte 23 Norte 0 -- -- 77
2019-10-09 20:00:00 21 12 Norte 23 Nordeste 0 -- -- 77
2019-10-09 19:00:00 22 15 Nordeste 25 Nordeste 0 -- -- 73
2019-10-09 18:00:00 23.9 12 Norte 24 Este 0 -- -- 67
2019-10-09 17:00:00 23.9 14 Nordeste 24 Nordeste 0 -- -- 67
2019-10-09 16:00:00 24.4 14 Este 29 Norte 0 -- -- 65
2019-10-09 15:00:00 26 20 Norte 29 Noroeste 0 -- -- 58
2019-10-09 14:00:00 26 19 Norte 27 Norte 0 -- -- 57
2019-10-09 13:00:00 25.3 12 Norte 21 Norte 0 -- -- 58
2019-10-09 12:00:00 23.6 8 Norte 32 Norte 0 -- -- 63
2019-10-09 11:00:00 22.4 19 Norte 36 Norte 0 -- -- 68
2019-10-09 10:00:00 20.4 22 Norte 32 Norte 0 -- -- 78
2019-10-09 09:00:00 18.5 17 Norte 30 Noroeste 0 -- -- 86
2019-10-09 08:00:00 17.6 19 Norte 28 Norte 0 -- -- 88
2019-10-09 07:00:00 17.6 15 Norte 22 Norte 0 -- -- 88
2019-10-09 06:00:00 18 17 Norte 30 Norte 0 -- -- 88
2019-10-09 05:00:00 18.2 21 Noroeste 32 Noroeste 0 -- -- 89
2019-10-09 04:00:00 17.9 13 Norte 28 Norte 0 -- -- 91
2019-10-09 03:00:00 17.8 15 Norte 25 Norte 0 -- -- 92
2019-10-09 02:00:00 17.9 12 Norte 22 Norte 0 -- -- 91
2019-10-09 01:00:00 18.4 18 Norte 27 Noroeste 0 -- -- 90
2019-10-09 00:00:00 18.6 21 Noroeste 33 Noroeste 0 -- -- 90
2019-10-08 23:00:00 19.1 23 Noroeste 33 Noroeste 0 -- -- 89
2019-10-08 22:00:00 19.3 18 Noroeste 35 Noroeste 0 -- -- 88
2019-10-08 21:00:00 19.8 26 Norte 36 Norte 0 -- -- 86
2019-10-08 20:00:00 21.1 12 Norte 28 Noroeste 0 -- -- 81
2019-10-08 19:00:00 22.2 21 Noroeste 33 Noroeste 0 -- -- 78
2019-10-08 18:00:00 24.9 22 Norte 29 Norte 0 -- -- 67
2019-10-08 17:00:00 26.4 11 Nordeste 23 Este 0 -- -- 59
2019-10-08 16:00:00 26.4 17 Nordeste 28 Nordeste 0 -- -- 59
2019-10-08 15:00:00 26.5 17 Nordeste 27 Este 0 -- -- 58
2019-10-08 14:00:00 26.5 17 Nordeste 26 Nordeste 0 -- -- 58
2019-10-08 13:00:00 26.1 14 Nordeste 24 Este 0 -- -- 58
2019-10-08 12:00:00 24.8 13 Norte 23 Norte 0 -- -- 63
2019-10-08 11:00:00 22.7 12 Norte 30 Noroeste 0 -- -- 72
2019-10-08 10:00:00 20.9 22 Norte 29 Norte 0 -- -- 82
2019-10-08 09:00:00 19 13 Norte 32 Norte 0 -- -- 92
2019-10-08 08:00:00 18.4 21 Norte 30 Norte 0 -- -- 93
2019-10-08 07:00:00 17.9 12 Norte 18 Norte 0 -- -- 95
2019-10-08 06:00:00 17.3 8 Noroeste 13 Noroeste 0 -- -- 94
2019-10-08 05:00:00 17.6 7 Noroeste 10 Norte 0 -- -- 93
2019-10-08 04:00:00 18.5 8 Norte 15 Noroeste 0 -- -- 93
2019-10-08 03:00:00 18.3 5 Norte 11 Norte 0 -- -- 92
2019-10-08 02:00:00 18.8 3 Noroeste 19 Nordeste 0 -- -- 90
2019-10-08 01:00:00 19.5 8 Nordeste 17 Nordeste 0 -- -- 89
2019-10-08 00:00:00 20 10 Nordeste 16 Nordeste 0 -- -- 88
2019-10-07 23:00:00 20.4 0 Calma 9 Norte 0 -- -- 89
2019-10-07 22:00:00 19.9 8 Norte 18 Norte 0 -- -- 88
2019-10-07 21:00:00 20.5 11 Norte 24 Noroeste 0 -- -- 86
2019-10-07 20:00:00 21.4 20 Norte 27 Norte 0 -- -- 80
2019-10-07 19:00:00 23.2 21 Noroeste 30 Noroeste 0 -- -- 72
2019-10-07 18:00:00 24.8 23 Noroeste 34 Noroeste 0 -- -- 66
2019-10-07 17:00:00 25.5 27 Noroeste 36 Noroeste 0 -- -- 64
2019-10-07 16:00:00 26.3 24 Norte 32 Norte 0 -- -- 62
2019-10-07 15:00:00 27.9 18 Norte 28 Norte 0 -- -- 56
2019-10-07 14:00:00 26.5 10 Nordeste 18 Nordeste 0 -- -- 56
2019-10-07 13:00:00 24.6 8 Nordeste 21 Este 0 -- -- 65
2019-10-07 12:00:00 23.5 14 Nordeste 23 Nordeste 0 -- -- 70
2019-10-07 11:00:00 22.7 8 Este 17 Este 0 -- -- 74
2019-10-07 10:00:00 21.1 11 Nordeste 23 Nordeste 0 -- -- 81
2019-10-07 09:00:00 18.8 7 Noroeste 14 Noroeste 0 -- -- 91
2019-10-07 08:00:00 16.7 9 Noroeste 11 Noroeste 0 -- -- 92
2019-10-07 07:00:00 16.9 9 Norte 11 Noroeste 0 -- -- 91
2019-10-07 06:00:00 17.2 9 Norte 13 Norte 0 -- -- 89
2019-10-07 05:00:00 17.5 11 Norte 14 Noroeste 0 -- -- 88
2019-10-07 04:00:00 18 8 Norte 15 Norte 0 -- -- 86
2019-10-07 03:00:00 18.4 8 Norte 17 Norte 0 -- -- 85
2019-10-07 02:00:00 19.2 9 Norte 22 Nordeste 0 -- -- 84
2019-10-07 01:00:00 19.7 10 Norte 23 Nordeste 0 -- -- 83
2019-10-07 00:00:00 20.1 14 Nordeste 27 Nordeste 0 -- -- 83
2019-10-06 23:00:00 20.1 13 Nordeste 25 Nordeste 0 -- -- 82
2019-10-06 22:00:00 20.5 14 Nordeste 23 Nordeste 0 -- -- 82
2019-10-06 21:00:00 20.7 14 Nordeste 23 Nordeste 0 -- -- 81
2019-10-06 20:00:00 20.8 17 Nordeste 30 Nordeste 0 -- -- 82
2019-10-06 19:00:00 21.8 19 Nordeste 33 Nordeste 0 -- -- 78
2019-10-06 18:00:00 23.2 22 Nordeste 32 Nordeste 0 -- -- 72
2019-10-06 17:00:00 24.6 22 Nordeste 32 Nordeste 0 -- -- 68
2019-10-06 16:00:00 25.6 22 Nordeste 36 Nordeste 0 -- -- 63
2019-10-06 15:00:00 25.4 21 Nordeste 34 Este 0 -- -- 63
2019-10-06 14:00:00 24.7 21 Nordeste 37 Nordeste 0 -- -- 65
2019-10-06 13:00:00 24.2 19 Nordeste 32 Nordeste 0 -- -- 65
2019-10-06 12:00:00 23.2 23 Nordeste 33 Nordeste 0 -- -- 69
2019-10-06 11:00:00 21.8 21 Nordeste 36 Nordeste 0 -- -- 73
2019-10-06 10:00:00 20.9 16 Nordeste 28 Nordeste 0 -- -- 76
2019-10-06 09:00:00 19.5 14 Norte 20 Norte 0 -- -- 86
2019-10-06 08:00:00 18.2 12 Norte 15 Noroeste 0 -- -- 88
2019-10-06 07:00:00 18 10 Norte 20 Norte 0 -- -- 85
2019-10-06 06:00:00 19.2 14 Norte 23 Norte 0 -- -- 81
2019-10-06 05:00:00 19.6 14 Norte 27 Norte 0 -- -- 79
2019-10-06 04:00:00 20.1 15 Norte 30 Nordeste 0 -- -- 79
2019-10-06 03:00:00 20.3 17 Norte 28 Nordeste 0 -- -- 79
2019-10-06 02:00:00 20.4 19 Nordeste 31 Nordeste 0 -- -- 80
2019-10-06 01:00:00 20.3 21 Nordeste 33 Nordeste 0 -- -- 81
2019-10-06 00:00:00 20.2 14 Norte 31 Nordeste 0 -- -- 82
2019-10-05 23:00:00 20.3 15 Nordeste 28 Nordeste 0 -- -- 82
2019-10-05 22:00:00 20.6 17 Nordeste 29 Norte 0 -- -- 81
2019-10-05 21:00:00 20.9 19 Norte 29 Norte 0 -- -- 83
2019-10-05 20:00:00 21.5 22 Norte 36 Norte 0 -- -- 79
2019-10-05 19:00:00 22.8 19 Nordeste 31 Nordeste 0 -- -- 75
2019-10-05 18:00:00 24.1 23 Nordeste 39 Nordeste 0 -- -- 69
2019-10-05 17:00:00 25.2 28 Nordeste 39 Nordeste 0 -- -- 65
2019-10-05 16:00:00 26.1 26 Nordeste 39 Nordeste 0 -- -- 62
2019-10-05 15:00:00 26.6 26 Nordeste 37 Norte 0 -- -- 59
2019-10-05 14:00:00 26 24 Nordeste 40 Nordeste 0 -- -- 61
2019-10-05 13:00:00 25.2 23 Nordeste 39 Nordeste 0 -- -- 66
2019-10-05 12:00:00 25.4 23 Nordeste 37 Nordeste 0 -- -- 60
2019-10-05 11:00:00 24.4 18 Norte 32 Norte 0 -- -- 65
2019-10-05 10:00:00 21.6 25 Norte 33 Noroeste 0 -- -- 85
2019-10-05 09:00:00 19.8 20 Noroeste 30 Noroeste 0 -- -- 92
2019-10-05 08:00:00 18.8 16 Noroeste 28 Norte 0 -- -- 92
2019-10-05 07:00:00 18.9 20 Norte 28 Norte 0 -- -- 91
2019-10-05 06:00:00 18.8 14 Norte 22 Norte 0 -- -- 87
2019-10-05 05:00:00 18.2 15 Norte 23 Norte 0 -- -- 92
2019-10-05 04:00:00 17.9 9 Noroeste 21 Noroeste 0 -- -- 91
2019-10-05 03:00:00 18.4 13 Noroeste 28 Noroeste 0 -- -- 92
2019-10-05 02:00:00 18.7 20 Noroeste 28 Noroeste 0 -- -- 94
2019-10-05 01:00:00 19 22 Noroeste 31 Noroeste 0 -- -- 93
2019-10-05 00:00:00 19.4 28 Noroeste 43 Noroeste 0 -- -- 92
2019-10-04 23:00:00 19.6 32 Noroeste 46 Noroeste 0 -- -- 91
2019-10-04 22:00:00 19.8 27 Noroeste 42 Noroeste 0 -- -- 89
2019-10-04 21:00:00 20.1 23 Noroeste 39 Norte 0 -- -- 87
2019-10-04 20:00:00 20.7 27 Norte 52 Norte 0 -- -- 84
2019-10-04 19:00:00 22.5 39 Norte 50 Norte 0 -- -- 76
2019-10-04 18:00:00 24.5 36 Norte 48 Norte 0 -- -- 68
2019-10-04 17:00:00 25.5 36 Norte 49 Norte 0 -- -- 63
2019-10-04 16:00:00 26.3 38 Noroeste 48 Noroeste 0 -- -- 63
2019-10-04 15:00:00 27.6 31 Norte 40 Norte 0 -- -- 57
2019-10-04 14:00:00 27.4 23 Nordeste 34 Nordeste 0 -- -- 56
2019-10-04 13:00:00 26.4 21 Nordeste 36 Nordeste 0 -- -- 57
2019-10-04 12:00:00 24.8 24 Nordeste 30 Nordeste 0 -- -- 66
2019-10-04 11:00:00 23.3 21 Nordeste 28 Nordeste 0 -- -- 72
2019-10-04 10:00:00 21.7 18 Norte 31 Noroeste 0 -- -- 81
2019-10-04 09:00:00 19.8 23 Norte 41 Noroeste 0 -- -- 92
2019-10-04 08:00:00 18.9 29 Noroeste 46 Norte 0 -- -- 92
2019-10-04 07:00:00 19.3 33 Noroeste 44 Noroeste 0 -- -- 92
2019-10-04 06:00:00 19.4 32 Noroeste 51 Noroeste 0 -- -- 92
2019-10-04 05:00:00 19.5 37 Norte 55 Norte 0 -- -- 93
2019-10-04 04:00:00 19.6 40 Norte 57 Norte 0 -- -- 92
2019-10-04 03:00:00 19.8 42 Noroeste 58 Noroeste 0 -- -- 92
2019-10-04 02:00:00 19.8 40 Norte 55 Norte 0 -- -- 93
2019-10-04 01:00:00 19.7 35 Norte 51 Norte 0 -- -- 93
2019-10-04 00:00:00 19.7 35 Norte 51 Norte 0 -- -- 92
2019-10-03 23:00:00 19.8 37 Noroeste 52 Noroeste 0 -- -- 91
2019-10-03 22:00:00 20.1 38 Norte 54 Norte 0 -- -- 90
2019-10-03 21:00:00 20.3 39 Norte 56 Noroeste 0 -- -- 88
2019-10-03 20:00:00 20.9 44 Norte 57 Norte 0 -- -- 85
2019-10-03 19:00:00 22.2 43 Norte 54 Noroeste 0 -- -- 78
2019-10-03 18:00:00 23.8 42 Norte 55 Norte 0 -- -- 73
2019-10-03 17:00:00 25.7 37 Norte 51 Norte 0 -- -- 66
2019-10-03 16:00:00 26.5 37 Norte 48 Noroeste 0 -- -- 63
2019-10-03 15:00:00 27.4 33 Norte 46 Noroeste 0 -- -- 59
2019-10-03 14:00:00 27.5 33 Norte 47 Norte 0 -- -- 60
2019-10-03 13:00:00 26.8 33 Norte 45 Norte 0 -- -- 60
2019-10-03 12:00:00 26.5 31 Norte 42 Noroeste 0 -- -- 64
2019-10-03 11:00:00 24.9 30 Norte 39 Noroeste 0 -- -- 69
2019-10-03 10:00:00 22.4 30 Noroeste 39 Noroeste 0 -- -- 82
2019-10-03 09:00:00 20.6 27 Noroeste 39 Noroeste 0 -- -- 91
2019-10-03 08:00:00 19.7 23 Noroeste 36 Noroeste 0 -- -- 91
2019-10-03 07:00:00 20.4 24 Noroeste 32 Noroeste 0 -- -- 80
2019-10-03 06:00:00 21.9 5 Oeste 26 Norte 0 -- -- 56
2019-10-03 05:00:00 23.3 15 Norte 28 Norte 0 -- -- 53
2019-10-03 04:00:00 22.3 3 Norte 15 Norte 0 -- -- 64
2019-10-03 03:00:00 22 5 Oeste 13 Norte 0 -- -- 66
2019-10-03 02:00:00 22.9 3 Sudoeste 10 Sudeste 0 -- -- 63
2019-10-03 01:00:00 23 5 Sudoeste 11 Sudeste 0 -- -- 60
2019-10-03 00:00:00 24.1 7 Sur 28 Nordeste 0 -- -- 55
2019-10-02 23:00:00 25.1 15 Nordeste 27 Nordeste 0 -- -- 47
2019-10-02 22:00:00 25.2 14 Noroeste 23 Norte 0 -- -- 47
2019-10-02 21:00:00 25.8 8 Sudoeste 24 Noroeste 0 -- -- 42
2019-10-02 20:00:00 25.7 9 Nordeste 17 Nordeste 0 -- -- 42
2019-10-02 19:00:00 27.4 12 Nordeste 18 Nordeste 0 -- -- 42
2019-10-02 18:00:00 28.5 11 Nordeste 22 Nordeste 0 -- -- 42
2019-10-02 17:00:00 29.6 14 Nordeste 24 Nordeste 0 -- -- 36
2019-10-02 16:00:00 30 17 Nordeste 25 Nordeste 0 -- -- 30
2019-10-02 15:00:00 29.7 18 Nordeste 28 Nordeste 0 -- -- 32
2019-10-02 14:00:00 30.4 9 Nordeste 24 Sudeste 0 -- -- 33
2019-10-02 13:00:00 30 13 Sudeste 20 Este 0 -- -- 33
2019-10-02 12:00:00 28.8 6 Sudeste 19 Este 0 -- -- 37
2019-10-02 11:00:00 25.3 12 Sur 18 Sudeste 0 -- -- 63
2019-10-02 10:00:00 23.6 6 Sudeste 10 Norte 0 -- -- 71
2019-10-02 09:00:00 21.4 6 Norte 20 Noroeste 0 -- -- 76
2019-10-02 08:00:00 21.4 10 Norte 24 Noroeste 0 -- -- 64
2019-10-02 07:00:00 22.5 10 Noroeste 17 Noroeste 0 -- -- 48
2019-10-02 06:00:00 21.8 7 Norte 32 Norte 0 -- -- 59
2019-10-02 05:00:00 21.8 14 Norte 26 Norte 0 -- -- 61
2019-10-02 04:00:00 21.5 12 Norte 17 Noroeste 0 -- -- 59
2019-10-02 03:00:00 23 6 Sur 15 Oeste 0 -- -- 46
2019-10-02 02:00:00 23.9 6 Sur 14 Sur 0 -- -- 40
2019-10-02 01:00:00 22.6 8 Noroeste 13 Noroeste 0 -- -- 49
2019-10-02 00:00:00 22.4 8 Noroeste 20 Nordeste 0 -- -- 55
2019-10-01 23:00:00 23 13 Nordeste 27 Nordeste 0 -- -- 58
2019-10-01 22:00:00 23.3 14 Norte 24 Norte 0 -- -- 55
2019-10-01 21:00:00 24.1 13 Norte 26 Nordeste 0 -- -- 42
2019-10-01 20:00:00 25.4 7 Norte 16 Norte 0 -- -- 43
2019-10-01 19:00:00 27.8 8 Norte 18 Nordeste 0 -- -- 34
2019-10-01 18:00:00 29.3 13 Nordeste 28 Nordeste 0 -- -- 29
2019-10-01 17:00:00 29.1 21 Nordeste 37 Nordeste 0 -- -- 34
2019-10-01 16:00:00 29.4 26 Nordeste 37 Nordeste 0 -- -- 37
2019-10-01 15:00:00 30.8 21 Este 33 Nordeste 0 -- -- 35
2019-10-01 14:00:00 29.7 24 Este 38 Nordeste 0 -- -- 40
2019-10-01 13:00:00 29.2 24 Nordeste 34 Nordeste 0 -- -- 40
2019-10-01 12:00:00 27.8 20 Nordeste 32 Nordeste 0 -- -- 44
2019-10-01 11:00:00 27.3 9 Nordeste 18 Este 0 -- -- 48
2019-10-01 10:00:00 25.6 8 Norte 17 Norte 0 -- -- 51
2019-10-01 09:00:00 24.1 9 Norte 15 Norte 0 -- -- 46
2019-10-01 08:00:00 20.8 9 Noroeste 22 Norte 0 -- -- 59
2019-10-01 07:00:00 20.4 11 Noroeste 16 Noroeste 0 -- -- 68
2019-10-01 06:00:00 20.2 11 Noroeste 14 Noroeste 0 -- -- 69
2019-10-01 05:00:00 20.9 5 Nordeste 17 Norte 0 -- -- 76
2019-10-01 04:00:00 21 12 Norte 21 Norte 0 -- -- 77
2019-10-01 03:00:00 20.7 4 Sudoeste 29 Norte 0 -- -- 78
2019-10-01 02:00:00 20.6 12 Noroeste 23 Noroeste 0 -- -- 84
2019-10-01 01:00:00 20 10 Noroeste 16 Norte 0 -- -- 95
2019-10-01 00:00:00 20.4 0 Calma 25 Norte 0 -- -- 95
2019-09-30 23:00:00 20.7 19 Norte 26 Norte 0 -- -- 93
2019-09-30 22:00:00 21.3 18 Norte 26 Norte 0 -- -- 90
2019-09-30 21:00:00 21.8 13 Norte 39 Norte 0 -- -- 89
2019-09-30 20:00:00 -- 30 Norte 46 Noroeste 0 -- -- --
2019-09-30 19:00:00 23.3 36 Norte 49 Norte 0 -- -- 82
2019-09-30 18:00:00 26.3 33 Norte 43 Norte 0 -- -- 72
2019-09-30 17:00:00 29.3 25 Norte 32 Norte 0 -- -- 61
2019-09-30 16:00:00 31.1 18 Norte 26 Norte 0 -- -- 54
2019-09-30 15:00:00 31.9 15 Norte 21 Norte 0 -- -- 47
2019-09-30 14:00:00 32.2 6 Nordeste 25 Sudeste 0 -- -- 39
2019-09-30 13:00:00 31.2 14 Este 24 Este 0 -- -- 45
2019-09-30 12:00:00 30.7 12 Este 22 Este 0 -- -- 43
2019-09-30 11:00:00 29.6 6 Sudeste 17 Este 0 -- -- 43
2019-09-30 10:00:00 25.5 7 Norte 24 Norte 0 -- -- 63
2019-09-30 09:00:00 20.8 19 Norte 31 Norte 0 -- -- 90
2019-09-30 08:00:00 19.9 23 Norte 32 Norte 0 -- -- 91
2019-09-30 07:00:00 19.9 23 Norte 38 Noroeste 0 -- -- 90
2019-09-30 06:00:00 21.4 16 Noroeste 29 Noroeste 0 -- -- 60
2019-09-30 05:00:00 21.5 24 Noroeste 32 Noroeste 0 -- -- 69
2019-09-30 04:00:00 21.3 4 Noroeste 15 Norte 0 -- -- 44
2019-09-30 03:00:00 20.9 5 Noroeste 15 Norte 0 -- -- 46
2019-09-30 02:00:00 23.7 14 Norte 24 Norte 0 -- -- 44
2019-09-30 01:00:00 22.3 13 Norte 23 Norte 0 -- -- 56
2019-09-30 00:00:00 21.5 9 Norte 22 Nordeste 0 -- -- 66
2019-09-29 23:00:00 20.3 10 Noroeste 20 Norte 0 -- -- 88
2019-09-29 22:00:00 21.1 14 Norte 27 Norte 0 -- -- 86
2019-09-29 21:00:00 21.6 21 Norte 31 Norte 0 -- -- 84
2019-09-29 20:00:00 22.9 24 Norte 37 Noroeste 0 -- -- 79
2019-09-29 19:00:00 24.7 29 Norte 39 Norte 0 -- -- 72
2019-09-29 18:00:00 26.7 27 Norte 33 Norte 0 -- -- 64
2019-09-29 17:00:00 29 17 Norte 23 Nordeste 0 -- -- 54
2019-09-29 16:00:00 30.4 17 Norte 30 Nordeste 0 -- -- 31
2019-09-29 15:00:00 29.5 14 Nordeste 24 Nordeste 0 -- -- 40
2019-09-29 14:00:00 28.7 7 Nordeste 24 Norte 0 -- -- 44
2019-09-29 13:00:00 26.9 13 Norte 20 Nordeste 0 -- -- 53
2019-09-29 12:00:00 25.4 12 Nordeste 23 Nordeste 0 -- -- 63
2019-09-29 11:00:00 23.2 5 Este 23 Norte 0 -- -- 73
2019-09-29 10:00:00 20.7 17 Nordeste 22 Nordeste 0 -- -- 88
2019-09-29 09:00:00 19.6 10 Norte 24 Nordeste 0 -- -- 92
2019-09-29 08:00:00 19.1 14 Nordeste 24 Nordeste 0 -- -- 92
2019-09-29 07:00:00 19.2 12 Nordeste 24 Nordeste 0 -- -- 93
2019-09-29 06:00:00 19.1 13 Norte 22 Nordeste 0 -- -- 93
2019-09-29 05:00:00 19.2 12 Nordeste 20 Nordeste 0 -- -- 93
2019-09-29 04:00:00 18.8 9 Norte 15 Norte 0 -- -- 93
2019-09-29 03:00:00 19.2 9 Norte 21 Nordeste 0 -- -- 92
2019-09-29 02:00:00 19.4 13 Nordeste 21 Nordeste 0 -- -- 91
2019-09-29 01:00:00 19.5 5 Norte 19 Nordeste 0 -- -- 90
2019-09-29 00:00:00 19.6 6 Norte 18 Noroeste 0 -- -- 89
2019-09-28 23:00:00 19.8 14 Norte 35 Norte 0 -- -- 89
2019-09-28 22:00:00 20.1 24 Norte 39 Norte 0 -- -- 88
2019-09-28 21:00:00 20.5 21 Norte 33 Noroeste 0 -- -- 85
2019-09-28 20:00:00 21.5 23 Noroeste 33 Norte 0 -- -- 81
2019-09-28 19:00:00 23.3 28 Noroeste 36 Noroeste 0 -- -- 72
2019-09-28 18:00:00 24.9 26 Norte 35 Norte 0 -- -- 67
2019-09-28 17:00:00 27.4 12 Nordeste 22 Nordeste 0 -- -- 57
2019-09-28 16:00:00 27.1 13 Nordeste 27 Nordeste 0 -- -- 57
2019-09-28 15:00:00 26.5 16 Nordeste 27 Este 0 -- -- 59
2019-09-28 14:00:00 25.3 18 Nordeste 28 Nordeste 0 -- -- 62
2019-09-28 13:00:00 24.4 17 Nordeste 30 Nordeste 0 -- -- 66
2019-09-28 12:00:00 23.5 20 Nordeste 32 Nordeste 0 -- -- 71
2019-09-28 11:00:00 22.4 19 Nordeste 29 Nordeste 0 -- -- 75
2019-09-28 10:00:00 21.2 12 Nordeste 26 Nordeste 0 -- -- 81
2019-09-28 09:00:00 19.3 7 Norte 17 Nordeste 0 -- -- 91
2019-09-28 08:00:00 17.8 8 Norte 11 Noroeste 0 -- -- 92
2019-09-28 07:00:00 18.4 9 Noroeste 14 Norte 0 -- -- 91
2019-09-28 06:00:00 18 10 Norte 13 Norte 0 -- -- 92
2019-09-28 05:00:00 17.6 6 Norte 13 Norte 0 -- -- 91
2019-09-28 04:00:00 18.2 5 Norte 12 Norte 0 -- -- 89
2019-09-28 03:00:00 19.2 12 Norte 16 Noroeste 0 -- -- 88
2019-09-28 02:00:00 19.2 8 Norte 11 Norte 0 -- -- 88
2019-09-28 01:00:00 19.5 6 Norte 22 Nordeste 0 -- -- 85
2019-09-28 00:00:00 20.2 13 Nordeste 23 Nordeste 0 -- -- 85
2019-09-27 23:00:00 20.7 17 Nordeste 22 Nordeste 0 -- -- 85
2019-09-27 22:00:00 20.7 15 Norte 26 Norte 0 -- -- 86
2019-09-27 21:00:00 21.1 11 Norte 29 Norte 0 -- -- 84
2019-09-27 20:00:00 21.8 22 Norte 33 Norte 0 -- -- 78
2019-09-27 19:00:00 23.3 26 Noroeste 36 Noroeste 0 -- -- 73
2019-09-27 18:00:00 25.3 16 Norte 38 Norte 0 -- -- 66
2019-09-27 17:00:00 26.4 21 Norte 32 Norte 0 -- -- 62
2019-09-27 16:00:00 25.6 20 Este 30 Nordeste 0 -- -- 65
2019-09-27 15:00:00 26 20 Nordeste 28 Nordeste 0 -- -- 63
2019-09-27 14:00:00 25.9 19 Nordeste 32 Este 0 -- -- 63
2019-09-27 13:00:00 25.6 17 Nordeste 30 Este 0 -- -- 63
2019-09-27 12:00:00 24.8 11 Norte 25 Este 0 -- -- 66
2019-09-27 11:00:00 23.1 12 Norte 20 Nordeste 0 -- -- 73
2019-09-27 10:00:00 21.8 12 Norte 18 Norte 0 -- -- 78
2019-09-27 09:00:00 20.6 11 Norte 15 Norte 0 -- -- 81
2019-09-27 08:00:00 20.2 10 Norte 23 Norte 0 -- -- 82
2019-09-27 07:00:00 20.2 14 Norte 24 Norte 0 -- -- 82
2019-09-27 06:00:00 20.1 12 Norte 19 Norte 0 -- -- 83
2019-09-27 05:00:00 20 12 Norte 24 Norte 0 -- -- 84
2019-09-27 04:00:00 20.1 17 Norte 26 Norte 0 -- -- 84
2019-09-27 03:00:00 19.9 13 Norte 17 Norte 0 -- -- 84
2019-09-27 02:00:00 19.6 8 Norte 15 Norte 0 -- -- 84
2019-09-27 01:00:00 20.4 10 Nordeste 21 Nordeste 0 -- -- 83
2019-09-27 00:00:00 21 10 Nordeste 24 Norte 0 -- -- 81
2019-09-26 23:00:00 21.2 15 Norte 24 Norte 0 -- -- 81
2019-09-26 22:00:00 21 19 Norte 30 Norte 0 -- -- 82
2019-09-26 21:00:00 21.8 22 Norte 29 Norte 0 -- -- 80
2019-09-26 20:00:00 21.9 17 Nordeste 27 Nordeste 0 -- -- 82
2019-09-26 19:00:00 23 19 Nordeste 30 Nordeste 0 -- -- 76
2019-09-26 18:00:00 24.3 21 Nordeste 35 Nordeste 0 -- -- 70
2019-09-26 17:00:00 25.2 22 Nordeste 32 Este 0 -- -- 68
2019-09-26 16:00:00 26.1 20 Nordeste 34 Norte 0 -- -- 65
2019-09-26 15:00:00 27 23 Norte 37 Norte 0 -- -- 61
2019-09-26 14:00:00 27.2 18 Norte 30 Noroeste 0 -- -- 59
2019-09-26 13:00:00 26.4 14 Norte 30 Noroeste 0 -- -- 62
2019-09-26 12:00:00 25.1 15 Norte 25 Nordeste 0 -- -- 65
2019-09-26 11:00:00 23.7 15 Nordeste 25 Nordeste 0 -- -- 69
2019-09-26 10:00:00 22.2 14 Nordeste 23 Nordeste 0 -- -- 75
2019-09-26 09:00:00 21.5 12 Norte 21 Nordeste 0 -- -- 79
2019-09-26 08:00:00 20.6 13 Nordeste 19 Nordeste 0 -- -- 81
2019-09-26 07:00:00 20.5 13 Norte 22 Norte 0 -- -- 82
2019-09-26 06:00:00 20.5 13 Norte 23 Norte 0 -- -- 82
2019-09-26 05:00:00 20.6 15 Norte 23 Norte 0 -- -- 82
2019-09-26 04:00:00 20.6 13 Norte 28 Nordeste 0 -- -- 84
2019-09-26 03:00:00 20.3 18 Nordeste 26 Nordeste 0 -- -- 85
2019-09-26 02:00:00 20.8 14 Nordeste 27 Norte 0 -- -- 84
2019-09-26 01:00:00 20.6 12 Nordeste 28 Nordeste 0 -- -- 84
2019-09-26 00:00:00 20.6 13 Nordeste 24 Nordeste 0 -- -- 85
2019-09-25 23:00:00 20.6 14 Nordeste 23 Nordeste 0 -- -- 85
2019-09-25 22:00:00 21.1 17 Nordeste 28 Nordeste 0 -- -- 85
2019-09-25 21:00:00 21.5 13 Norte 33 Norte 0 -- -- 84
2019-09-25 20:00:00 22 24 Norte 35 Norte 0 -- -- 80
2019-09-25 19:00:00 23.6 26 Norte 39 Noroeste 0 -- -- 73
2019-09-25 18:00:00 24.9 28 Norte 41 Noroeste 0 -- -- 69
2019-09-25 17:00:00 25.4 32 Noroeste 46 Noroeste 0 -- -- 68
2019-09-25 16:00:00 26.5 28 Norte 41 Noroeste 0 -- -- 63
2019-09-25 15:00:00 27.3 27 Norte 42 Noroeste 0 -- -- 61
2019-09-25 14:00:00 27 28 Norte 40 Noroeste 0 -- -- 61
2019-09-25 13:00:00 27.4 18 Norte 31 Noroeste 0 -- -- 58
2019-09-25 12:00:00 25.8 14 Nordeste 32 Norte 0 -- -- 57
2019-09-25 11:00:00 23.8 16 Norte 32 Norte 0 -- -- 68
2019-09-25 10:00:00 21.7 24 Norte 32 Norte 0 -- -- 79
2019-09-25 09:00:00 19.9 22 Norte 31 Norte 0 -- -- 89
2019-09-25 08:00:00 18.5 17 Norte 29 Norte 0 -- -- 92
2019-09-25 07:00:00 18.5 20 Norte 29 Noroeste 0 -- -- 92
2019-09-25 06:00:00 18.5 18 Norte 32 Norte 0 -- -- 92
2019-09-25 05:00:00 18.8 22 Norte 32 Noroeste 0 -- -- 91
2019-09-25 04:00:00 18.7 22 Norte 31 Noroeste 0 -- -- 91
2019-09-25 03:00:00 18.7 20 Norte 30 Norte 0 -- -- 90
2019-09-25 02:00:00 18.9 20 Norte 29 Norte 0 -- -- 89
2019-09-25 01:00:00 19.3 20 Norte 27 Norte 0 -- -- 88
2019-09-25 00:00:00 19.2 14 Norte 21 Norte 0 -- -- 87
2019-09-24 23:00:00 19.4 14 Norte 27 Norte 0 -- -- 86
2019-09-24 22:00:00 19.8 19 Norte 31 Norte 0 -- -- 85
2019-09-24 21:00:00 20.3 23 Norte 34 Norte 0 -- -- 81
2019-09-24 20:00:00 21.1 25 Norte 38 Norte 0 -- -- 77
2019-09-24 19:00:00 22.8 30 Norte 41 Norte 0 -- -- 70
2019-09-24 18:00:00 24.4 28 Norte 40 Noroeste 0 -- -- 65
2019-09-24 17:00:00 25.8 29 Norte 47 Norte 0 -- -- 60
2019-09-24 16:00:00 25.9 33 Noroeste 44 Noroeste 0 -- -- 59
2019-09-24 15:00:00 26.8 26 Norte 41 Norte 0 -- -- 57
2019-09-24 14:00:00 25.9 27 Norte 43 Norte 0 -- -- 57
2019-09-24 13:00:00 24.7 28 Norte 39 Norte 0 -- -- 61
2019-09-24 12:00:00 23.9 24 Norte 39 Norte 0 -- -- 63
2019-09-24 11:00:00 22.9 26 Norte 36 Norte 0 -- -- 67
2019-09-24 10:00:00 21.2 23 Norte 33 Norte 0 -- -- 74
2019-09-24 09:00:00 19.9 16 Norte 24 Norte 0 -- -- 82
2019-09-24 08:00:00 17.9 7 Norte 12 Norte 0 -- -- 88
2019-09-24 07:00:00 17.7 8 Norte 13 Norte 0 -- -- 90
2019-09-24 06:00:00 17.5 10 Norte 16 Noroeste 0 -- -- 89
2019-09-24 05:00:00 18.3 11 Norte 18 Norte 0 -- -- 88
2019-09-24 04:00:00 18.7 15 Norte 21 Norte 0 -- -- 88
2019-09-24 03:00:00 19 15 Norte 19 Norte 0 -- -- 86
2019-09-24 02:00:00 18.8 10 Norte 15 Norte 0 -- -- 85
2019-09-24 01:00:00 19.6 10 Norte 21 Norte 0 -- -- 81
2019-09-24 00:00:00 20.1 10 Norte 19 Nordeste 0 -- -- 80
2019-09-23 23:00:00 20 9 Norte 26 Norte 0 -- -- 82
2019-09-23 22:00:00 20.5 21 Norte 31 Norte 0 -- -- 82
2019-09-23 21:00:00 20.9 24 Norte 36 Norte 0 -- -- 81
2019-09-23 20:00:00 21.8 28 Norte 38 Norte 0 -- -- 74
2019-09-23 19:00:00 23.4 28 Norte 41 Noroeste 0 -- -- 66
2019-09-23 18:00:00 24.7 28 Norte 41 Norte 0 -- -- 62
2019-09-23 17:00:00 26 26 Norte 40 Noroeste 0 -- -- 58
2019-09-23 16:00:00 25.7 23 Nordeste 38 Nordeste 0 -- -- 61
2019-09-23 15:00:00 26.4 21 Nordeste 35 Nordeste 0 -- -- 58
2019-09-23 14:00:00 26.3 21 Nordeste 34 Este 0 -- -- 58
2019-09-23 13:00:00 25.5 18 Nordeste 30 Nordeste 0 -- -- 62
2019-09-23 12:00:00 24.3 12 Norte 27 Nordeste 0 -- -- 64
2019-09-23 11:00:00 23.3 13 Nordeste 23 Norte 0 -- -- 67
2019-09-23 10:00:00 21.9 14 Nordeste 21 Nordeste 0 -- -- 72
2019-09-23 09:00:00 20.7 17 Norte 23 Norte 0 -- -- 83
2019-09-23 08:00:00 19.3 9 Norte 18 Norte 0 -- -- 88
2019-09-23 07:00:00 19.2 13 Norte 26 Norte 0 -- -- 89
2019-09-23 06:00:00 20.1 20 Norte 31 Norte 0 -- -- 87
2019-09-23 05:00:00 20.3 18 Norte 31 Norte 0 -- -- 89
2019-09-23 04:00:00 20.7 14 Norte 20 Norte 0 -- -- 89
2019-09-23 03:00:00 20.6 9 Norte 14 Norte 0 -- -- 84
2019-09-23 02:00:00 20.7 7 Norte 14 Noroeste 0 -- -- 88
2019-09-23 01:00:00 20.9 9 Norte 20 Norte 0 -- -- 89
2019-09-23 00:00:00 21.2 13 Norte 22 Norte 0 -- -- 90
2019-09-22 23:00:00 21.5 18 Norte 28 Norte 0 -- -- 91
2019-09-22 22:00:00 22.1 17 Norte 29 Norte 0 -- -- 90
2019-09-22 21:00:00 22.4 24 Norte 33 Norte 0 -- -- 88
2019-09-22 20:00:00 23.1 22 Norte 32 Norte 0 -- -- 85
2019-09-22 19:00:00 24.3 22 Noroeste 32 Norte 0 -- -- 79
2019-09-22 18:00:00 25.8 21 Noroeste 29 Noroeste 0 -- -- 72
2019-09-22 17:00:00 25.7 23 Noroeste 34 Norte 0 -- -- 73
2019-09-22 16:00:00 26.4 22 Noroeste 36 Noroeste 0 -- -- 69
2019-09-22 15:00:00 26.8 24 Noroeste 35 Norte 0 -- -- 66
2019-09-22 14:00:00 26.8 23 Noroeste 35 Norte 0 -- -- 66
2019-09-22 13:00:00 26.2 22 Norte 36 Noroeste 0 -- -- 64
2019-09-22 12:00:00 25.3 20 Norte 30 Norte 0 -- -- 68
2019-09-22 11:00:00 23.8 20 Norte 30 Norte 0 -- -- 74
2019-09-22 10:00:00 22.4 17 Norte 24 Norte 0 -- -- 83
2019-09-22 09:00:00 20.9 14 Norte 22 Noroeste 0 -- -- 92
2019-09-22 08:00:00 19.7 15 Noroeste 23 Noroeste 0 -- -- 95
2019-09-22 07:00:00 19.4 8 Norte 15 Norte 0 -- -- 94
2019-09-22 06:00:00 19.6 10 Norte 24 Noroeste 0 -- -- 94
2019-09-22 05:00:00 19.7 16 Norte 24 Noroeste 0 -- -- 94
2019-09-22 04:00:00 19.6 18 Noroeste 22 Noroeste 0 -- -- 94
2019-09-22 03:00:00 19.3 7 Norte 14 Noroeste 0 -- -- 93
2019-09-22 02:00:00 19.5 12 Noroeste 16 Noroeste 0 -- -- 92
2019-09-22 01:00:00 19.6 11 Noroeste 13 Noroeste 0 -- -- 91
2019-09-22 00:00:00 19.6 8 Noroeste 14 Noroeste 0 -- -- 88
2019-09-21 23:00:00 20.3 10 Norte 22 Noroeste 0 -- -- 88
2019-09-21 22:00:00 20.6 9 Norte 21 Noroeste 0 -- -- 85
2019-09-21 21:00:00 20.8 19 Noroeste 26 Noroeste 0 -- -- 83
2019-09-21 20:00:00 21.6 19 Noroeste 27 Noroeste 0 -- -- 79
2019-09-21 19:00:00 23.1 22 Noroeste 30 Noroeste 0 -- -- 74
2019-09-21 18:00:00 24.2 23 Noroeste 33 Noroeste 0 -- -- 70
2019-09-21 17:00:00 25.4 22 Noroeste 34 Noroeste 0 -- -- 65
2019-09-21 16:00:00 26.1 25 Noroeste 34 Noroeste 0 -- -- 61
2019-09-21 15:00:00 26.1 23 Noroeste 35 Norte 0 -- -- 62
2019-09-21 14:00:00 26.2 22 Norte 32 Noroeste 0 -- -- 61
2019-09-21 13:00:00 25.7 16 Noroeste 27 Norte 0 -- -- 65
2019-09-21 12:00:00 24.9 14 Noroeste 24 Noroeste 0 -- -- 66
2019-09-21 11:00:00 23.2 17 Norte 29 Norte 0 -- -- 73
2019-09-21 10:00:00 21.3 22 Norte 31 Noroeste 0 -- -- 83
2019-09-21 09:00:00 20 21 Noroeste 28 Noroeste 0 -- -- 90
2019-09-21 08:00:00 18.6 14 Noroeste 22 Noroeste 0 -- -- 91
2019-09-21 07:00:00 18.4 15 Noroeste 25 Norte 0 -- -- 91
2019-09-21 06:00:00 18.3 17 Noroeste 24 Noroeste 0 -- -- 93
2019-09-21 05:00:00 18.3 18 Noroeste 26 Noroeste 0 -- -- 93
2019-09-21 04:00:00 17.6 10 Noroeste 14 Noroeste 0 -- -- 93
2019-09-21 03:00:00 17 3 Noroeste 4 Noroeste 0 -- -- 90
2019-09-21 02:00:00 18 4 Noroeste 12 Noroeste 0 -- -- 90
2019-09-21 01:00:00 18.5 3 Noroeste 10 Noroeste 0 -- -- 88
2019-09-21 00:00:00 19.1 8 Noroeste 10 Noroeste 0 -- -- 88
2019-09-20 23:00:00 19.8 8 Norte 18 Norte 0 -- -- 86
2019-09-20 22:00:00 20.3 13 Norte 20 Norte 0 -- -- 83
2019-09-20 21:00:00 20.9 15 Norte 27 Norte 0 -- -- 80
2019-09-20 20:00:00 21.3 19 Norte 33 Norte 0 -- -- 80
2019-09-20 19:00:00 22.8 25 Norte 39 Noroeste 0 -- -- 73
2019-09-20 18:00:00 24 30 Norte 42 Norte 0 -- -- 70
2019-09-20 17:00:00 25.5 27 Norte 38 Noroeste 0 -- -- 63
2019-09-20 16:00:00 26.1 25 Norte 37 Norte 0 -- -- 62
2019-09-20 15:00:00 26.5 22 Noroeste 39 Norte 0 -- -- 61
2019-09-20 14:00:00 25.9 19 Norte 30 Norte 0 -- -- 64
2019-09-20 13:00:00 25.2 21 Norte 30 Noroeste 0 -- -- 66
2019-09-20 12:00:00 25.3 16 Norte 33 Noroeste 0 -- -- 65
2019-09-20 11:00:00 23.7 6 Este 17 Norte 0 -- -- 67
2019-09-20 10:00:00 21.9 10 Norte 23 Norte 0 -- -- 77
2019-09-20 09:00:00 20.3 13 Norte 22 Norte 0 -- -- 84
2019-09-20 08:00:00 17.6 11 Norte 16 Norte 0 -- -- 90
2019-09-20 07:00:00 17.9 11 Norte 24 Norte 0 -- -- 89
2019-09-20 06:00:00 18.1 15 Norte 22 Noroeste 0 -- -- 92
2019-09-20 05:00:00 17.5 14 Noroeste 22 Noroeste 0 -- -- 92
2019-09-20 04:00:00 17.9 7 Norte 14 Norte 0 -- -- 91
2019-09-20 03:00:00 18.3 6 Norte 17 Norte 0 -- -- 91
2019-09-20 02:00:00 18.7 16 Norte 25 Norte 0 -- -- 91
2019-09-20 01:00:00 19.2 19 Norte 32 Norte 0 -- -- 90
2019-09-20 00:00:00 19.4 22 Norte 35 Noroeste 0 -- -- 89
2019-09-19 23:00:00 19.7 24 Norte 38 Noroeste 0 -- -- 88
2019-09-19 22:00:00 20.1 26 Norte 36 Norte 0 -- -- 86
2019-09-19 21:00:00 20.8 26 Norte 34 Norte 0 -- -- 83
2019-09-19 20:00:00 22 15 Norte 27 Nordeste 0 -- -- 74
2019-09-19 19:00:00 22.8 22 Nordeste 33 Este 0 -- -- 72
2019-09-19 18:00:00 24.3 23 Nordeste 38 Este 0 -- -- 68
2019-09-19 17:00:00 25.4 22 Nordeste 32 Este 0 -- -- 63
2019-09-19 16:00:00 26 22 Nordeste 31 Nordeste 0 -- -- 62
2019-09-19 15:00:00 26.6 16 Norte 44 Nordeste 0 -- -- 60
2019-09-19 14:00:00 27 18 Nordeste 41 Norte 0 -- -- 59
2019-09-19 13:00:00 26.6 17 Norte 32 Norte 0 -- -- 56
2019-09-19 12:00:00 24.9 14 Norte 24 Nordeste 0 -- -- 59
2019-09-19 11:00:00 23 17 Norte 26 Nordeste 0 -- -- 67
2019-09-19 10:00:00 21.7 18 Nordeste 28 Norte 0 -- -- 75
2019-09-19 09:00:00 19.6 10 Norte 16 Nordeste 0 -- -- 88
2019-09-19 08:00:00 16.9 9 Noroeste 15 Norte 0 -- -- 92
2019-09-19 07:00:00 16.6 8 Norte 12 Norte 0 -- -- 92
2019-09-19 06:00:00 16.7 7 Norte 13 Noroeste 0 -- -- 92
2019-09-19 05:00:00 17 8 Norte 10 Norte 0 -- -- 91
2019-09-19 04:00:00 17.5 5 Noroeste 21 Norte 0 -- -- 89
2019-09-19 03:00:00 18.8 12 Norte 21 Nordeste 0 -- -- 90
2019-09-19 02:00:00 18.9 11 Nordeste 19 Nordeste 0 -- -- 90
2019-09-19 01:00:00 19.1 12 Nordeste 21 Nordeste 0 -- -- 90
2019-09-19 00:00:00 19.2 11 Norte 18 Nordeste 0 -- -- 89
2019-09-18 23:00:00 19.6 10 Nordeste 18 Nordeste 0 -- -- 88
2019-09-18 22:00:00 20.1 6 Norte 19 Nordeste 0 -- -- 85
2019-09-18 21:00:00 20.5 10 Nordeste 23 Este 0 -- -- 84
2019-09-18 20:00:00 21.4 13 Nordeste 23 Nordeste 0 -- -- 78
2019-09-18 19:00:00 23 16 Nordeste 26 Nordeste 0 -- -- 68
2019-09-18 18:00:00 23.8 19 Nordeste 27 Este 0 -- -- 69
2019-09-18 17:00:00 24.9 14 Nordeste 31 Este 0 -- -- 65
2019-09-18 16:00:00 25 17 Nordeste 29 Nordeste 0 -- -- 63
2019-09-18 15:00:00 25.2 18 Nordeste 32 Este 0 -- -- 63
2019-09-18 14:00:00 25.6 20 Nordeste 34 Nordeste 0 -- -- 60
2019-09-18 13:00:00 25.8 21 Nordeste 29 Nordeste 0 -- -- 58
2019-09-18 12:00:00 24.9 18 Nordeste 27 Nordeste 0 -- -- 61
2019-09-18 11:00:00 23 17 Nordeste 28 Nordeste 0 -- -- 71
2019-09-18 10:00:00 21.2 18 Nordeste 25 Nordeste 0 -- -- 77
2019-09-18 09:00:00 19.8 12 Norte 26 Norte 0 -- -- 84
2019-09-18 08:00:00 18.9 10 Nordeste 25 Nordeste 0 -- -- 87
2019-09-18 07:00:00 18.9 13 Norte 24 Nordeste 0 -- -- 88
2019-09-18 06:00:00 18.7 9 Nordeste 26 Nordeste 0 -- -- 88
2019-09-18 05:00:00 18.5 10 Nordeste 22 Norte 0 -- -- 89
2019-09-18 04:00:00 18.9 18 Nordeste 26 Nordeste 0 -- -- 89
2019-09-18 03:00:00 18.9 11 Nordeste 22 Nordeste 0 -- -- 90
2019-09-18 02:00:00 19 12 Nordeste 17 Nordeste 0 -- -- 90
2019-09-18 01:00:00 19.4 13 Nordeste 22 Nordeste 0 -- -- 89
2019-09-18 00:00:00 19.6 12 Nordeste 22 Nordeste 0 -- -- 88
2019-09-17 23:00:00 19.9 13 Nordeste 23 Nordeste 0 -- -- 88
2019-09-17 22:00:00 -- -- -- -- -- -- -- -- --
2019-09-17 21:00:00 20.8 7 Nordeste 22 Nordeste 0 -- -- 83
2019-09-17 20:00:00 21.6 15 Nordeste 27 Nordeste 0 -- -- 77